sensor_id;sensor_type;location;lat;lon;timestamp;temperature;humidity
54680;DHT22;40578;53.178;5.846;2024-03-29T00:00:40;8.30;99.90
54680;DHT22;40578;53.178;5.846;2024-03-29T00:03:06;8.30;99.90
54680;DHT22;40578;53.178;5.846;2024-03-29T00:05:33;8.30;99.90
54680;DHT22;40578;53.178;5.846;2024-03-29T00:07:59;8.40;99.90
54680;DHT22;40578;53.178;5.846;2024-03-29T00:10:25;8.50;99.90
54680;DHT22;40578;53.178;5.846;2024-03-29T00:12:50;8.40;99.90
54680;DHT22;40578;53.178;5.846;2024-03-29T00:15:16;8.40;99.90
54680;DHT22;40578;53.178;5.846;2024-03-29T00:17:42;8.50;99.90
54680;DHT22;40578;53.178;5.846;2024-03-29T00:20:07;8.50;99.90
54680;DHT22;40578;53.178;5.846;2024-03-29T00:22:34;8.50;99.90
54680;DHT22;40578;53.178;5.846;2024-03-29T00:25:00;8.40;99.90
54680;DHT22;40578;53.178;5.846;2024-03-29T00:27:25;8.40;99.90
54680;DHT22;40578;53.178;5.846;2024-03-29T00:29:53;8.40;99.90
54680;DHT22;40578;53.178;5.846;2024-03-29T00:32:20;8.40;99.90
54680;DHT22;40578;53.178;5.846;2024-03-29T00:34:45;8.30;99.90
54680;DHT22;40578;53.178;5.846;2024-03-29T00:37:14;8.40;99.90
54680;DHT22;40578;53.178;5.846;2024-03-29T00:39:39;8.30;99.90
54680;DHT22;40578;53.178;5.846;2024-03-29T00:42:05;8.40;99.90
54680;DHT22;40578;53.178;5.846;2024-03-29T00:44:34;8.40;99.90
54680;DHT22;40578;53.178;5.846;2024-03-29T00:47:00;8.40;99.90
54680;DHT22;40578;53.178;5.846;2024-03-29T00:49:26;8.40;99.90
54680;DHT22;40578;53.178;5.846;2024-03-29T00:51:52;8.40;99.90
54680;DHT22;40578;53.178;5.846;2024-03-29T00:54:18;8.40;99.90
54680;DHT22;40578;53.178;5.846;2024-03-29T00:56:44;8.40;99.90
54680;DHT22;40578;53.178;5.846;2024-03-29T00:59:10;8.40;99.90
54680;DHT22;40578;53.178;5.846;2024-03-29T01:01:35;8.30;99.90
54680;DHT22;40578;53.178;5.846;2024-03-29T01:04:01;8.30;99.90
54680;DHT22;40578;53.178;5.846;2024-03-29T01:06:26;8.30;99.90
54680;DHT22;40578;53.178;5.846;2024-03-29T01:08:52;8.30;99.90
54680;DHT22;40578;53.178;5.846;2024-03-29T01:11:18;8.30;99.90
54680;DHT22;40578;53.178;5.846;2024-03-29T01:13:43;8.30;99.90
54680;DHT22;40578;53.178;5.846;2024-03-29T01:16:09;8.20;99.90
54680;DHT22;40578;53.178;5.846;2024-03-29T01:18:34;8.20;99.90
54680;DHT22;40578;53.178;5.846;2024-03-29T01:21:00;8.20;99.90
54680;DHT22;40578;53.178;5.846;2024-03-29T01:23:25;8.30;99.90
54680;DHT22;40578;53.178;5.846;2024-03-29T01:25:51;8.20;99.90
54680;DHT22;40578;53.178;5.846;2024-03-29T01:28:16;8.20;99.90
54680;DHT22;40578;53.178;5.846;2024-03-29T01:30:42;8.40;99.90
54680;DHT22;40578;53.178;5.846;2024-03-29T01:33:08;8.10;99.90
54680;DHT22;40578;53.178;5.846;2024-03-29T01:35:33;9.00;99.90
54680;DHT22;40578;53.178;5.846;2024-03-29T01:37:59;8.00;99.90
54680;DHT22;40578;53.178;5.846;2024-03-29T01:40:24;8.00;99.90
54680;DHT22;40578;53.178;5.846;2024-03-29T01:42:53;7.90;99.90
54680;DHT22;40578;53.178;5.846;2024-03-29T01:45:19;7.80;99.90
54680;DHT22;40578;53.178;5.846;2024-03-29T01:47:46;7.70;99.90
54680;DHT22;40578;53.178;5.846;2024-03-29T01:50:12;7.80;99.90
54680;DHT22;40578;53.178;5.846;2024-03-29T01:52:38;7.60;99.90
54680;DHT22;40578;53.178;5.846;2024-03-29T01:55:04;7.50;99.90
54680;DHT22;40578;53.178;5.846;2024-03-29T01:57:30;7.40;99.90
54680;DHT22;40578;53.178;5.846;2024-03-29T01:59:56;7.30;99.90
54680;DHT22;40578;53.178;5.846;2024-03-29T02:02:22;7.30;99.90
54680;DHT22;40578;53.178;5.846;2024-03-29T02:04:49;7.30;99.90
54680;DHT22;40578;53.178;5.846;2024-03-29T02:07:15;7.30;99.90
54680;DHT22;40578;53.178;5.846;2024-03-29T02:09:40;7.30;99.90
54680;DHT22;40578;53.178;5.846;2024-03-29T02:12:06;7.30;99.90
54680;DHT22;40578;53.178;5.846;2024-03-29T02:14:32;7.30;99.90
54680;DHT22;40578;53.178;5.846;2024-03-29T02:16:58;7.30;99.90
54680;DHT22;40578;53.178;5.846;2024-03-29T02:19:23;6.80;99.90
54680;DHT22;40578;53.178;5.846;2024-03-29T02:21:50;7.20;99.90
54680;DHT22;40578;53.178;5.846;2024-03-29T02:24:18;7.50;99.90
54680;DHT22;40578;53.178;5.846;2024-03-29T02:26:44;7.20;99.90
54680;DHT22;40578;53.178;5.846;2024-03-29T02:29:10;7.10;99.90
54680;DHT22;40578;53.178;5.846;2024-03-29T02:31:36;7.10;99.90
54680;DHT22;40578;53.178;5.846;2024-03-29T02:34:02;7.10;99.90
54680;DHT22;40578;53.178;5.846;2024-03-29T02:36:28;7.00;99.90
54680;DHT22;40578;53.178;5.846;2024-03-29T02:38:54;6.90;99.90
54680;DHT22;40578;53.178;5.846;2024-03-29T02:41:19;6.90;99.90
54680;DHT22;40578;53.178;5.846;2024-03-29T02:43:45;7.10;99.90
54680;DHT22;40578;53.178;5.846;2024-03-29T02:46:11;6.90;99.90
54680;DHT22;40578;53.178;5.846;2024-03-29T02:48:37;6.90;99.90
54680;DHT22;40578;53.178;5.846;2024-03-29T02:51:02;6.90;99.90
54680;DHT22;40578;53.178;5.846;2024-03-29T02:53:28;6.90;99.90
54680;DHT22;40578;53.178;5.846;2024-03-29T02:55:53;6.90;99.90
54680;DHT22;40578;53.178;5.846;2024-03-29T02:58:19;6.90;99.90
54680;DHT22;40578;53.178;5.846;2024-03-29T03:00:45;7.00;99.90
54680;DHT22;40578;53.178;5.846;2024-03-29T03:03:10;7.00;99.90
54680;DHT22;40578;53.178;5.846;2024-03-29T03:05:36;7.20;99.90
54680;DHT22;40578;53.178;5.846;2024-03-29T03:08:02;7.10;99.90
54680;DHT22;40578;53.178;5.846;2024-03-29T03:10:47;7.10;99.90
54680;DHT22;40578;53.178;5.846;2024-03-29T03:13:21;7.10;99.90
54680;DHT22;40578;53.178;5.846;2024-03-29T03:15:47;7.20;99.90
54680;DHT22;40578;53.178;5.846;2024-03-29T03:18:13;7.20;99.90
54680;DHT22;40578;53.178;5.846;2024-03-29T03:20:38;7.20;99.90
54680;DHT22;40578;53.178;5.846;2024-03-29T03:23:04;7.20;99.90
54680;DHT22;40578;53.178;5.846;2024-03-29T03:25:29;7.30;99.90
54680;DHT22;40578;53.178;5.846;2024-03-29T03:27:55;7.20;99.90
54680;DHT22;40578;53.178;5.846;2024-03-29T03:30:21;8.10;99.90
54680;DHT22;40578;53.178;5.846;2024-03-29T03:32:47;7.20;99.90
54680;DHT22;40578;53.178;5.846;2024-03-29T03:35:13;7.20;99.90
54680;DHT22;40578;53.178;5.846;2024-03-29T03:37:39;7.10;99.90
54680;DHT22;40578;53.178;5.846;2024-03-29T03:40:05;7.10;99.90
54680;DHT22;40578;53.178;5.846;2024-03-29T03:42:32;7.10;99.90
54680;DHT22;40578;53.178;5.846;2024-03-29T03:44:57;7.20;99.90
54680;DHT22;40578;53.178;5.846;2024-03-29T03:47:23;7.10;99.90
54680;DHT22;40578;53.178;5.846;2024-03-29T03:49:49;7.10;99.90
54680;DHT22;40578;53.178;5.846;2024-03-29T03:52:15;7.20;99.90
54680;DHT22;40578;53.178;5.846;2024-03-29T03:54:40;7.20;99.90
54680;DHT22;40578;53.178;5.846;2024-03-29T03:57:06;7.20;99.90
54680;DHT22;40578;53.178;5.846;2024-03-29T03:59:32;7.30;99.90
54680;DHT22;40578;53.178;5.846;2024-03-29T04:01:57;7.30;99.90
54680;DHT22;40578;53.178;5.846;2024-03-29T04:04:23;7.20;99.90
54680;DHT22;40578;53.178;5.846;2024-03-29T04:06:49;7.20;99.90
54680;DHT22;40578;53.178;5.846;2024-03-29T04:09:15;7.20;99.90
54680;DHT22;40578;53.178;5.846;2024-03-29T04:11:43;7.20;99.90
54680;DHT22;40578;53.178;5.846;2024-03-29T04:14:08;7.10;99.90
54680;DHT22;40578;53.178;5.846;2024-03-29T04:16:34;7.10;99.90
54680;DHT22;40578;53.178;5.846;2024-03-29T04:19:00;7.10;99.90
54680;DHT22;40578;53.178;5.846;2024-03-29T04:21:25;7.10;99.90
54680;DHT22;40578;53.178;5.846;2024-03-29T04:23:51;7.20;99.90
54680;DHT22;40578;53.178;5.846;2024-03-29T04:26:17;7.10;99.90
54680;DHT22;40578;53.178;5.846;2024-03-29T04:28:42;7.10;99.90
54680;DHT22;40578;53.178;5.846;2024-03-29T04:31:08;7.10;99.90
54680;DHT22;40578;53.178;5.846;2024-03-29T04:33:33;7.20;99.90
54680;DHT22;40578;53.178;5.846;2024-03-29T04:36:02;7.20;99.90
54680;DHT22;40578;53.178;5.846;2024-03-29T04:38:28;7.20;99.90
54680;DHT22;40578;53.178;5.846;2024-03-29T04:40:55;7.20;99.90
54680;DHT22;40578;53.178;5.846;2024-03-29T04:43:22;7.30;99.90
54680;DHT22;40578;53.178;5.846;2024-03-29T04:45:49;7.30;99.90
54680;DHT22;40578;53.178;5.846;2024-03-29T04:48:15;7.40;99.90
54680;DHT22;40578;53.178;5.846;2024-03-29T04:50:40;7.40;99.90
54680;DHT22;40578;53.178;5.846;2024-03-29T04:53:07;7.40;99.90
54680;DHT22;40578;53.178;5.846;2024-03-29T04:55:33;7.50;99.90
54680;DHT22;40578;53.178;5.846;2024-03-29T04:58:00;7.50;99.90
54680;DHT22;40578;53.178;5.846;2024-03-29T05:00:25;7.50;99.90
54680;DHT22;40578;53.178;5.846;2024-03-29T05:02:51;7.80;99.90
54680;DHT22;40578;53.178;5.846;2024-03-29T05:05:17;7.60;99.90
54680;DHT22;40578;53.178;5.846;2024-03-29T05:07:42;7.60;99.90
54680;DHT22;40578;53.178;5.846;2024-03-29T05:10:08;7.60;99.90
54680;DHT22;40578;53.178;5.846;2024-03-29T05:12:35;7.60;99.90
54680;DHT22;40578;53.178;5.846;2024-03-29T05:15:00;7.60;99.90
54680;DHT22;40578;53.178;5.846;2024-03-29T05:17:26;7.60;99.90
54680;DHT22;40578;53.178;5.846;2024-03-29T05:19:53;7.60;99.90
54680;DHT22;40578;53.178;5.846;2024-03-29T05:22:19;7.50;99.90
54680;DHT22;40578;53.178;5.846;2024-03-29T05:24:45;7.50;99.90
54680;DHT22;40578;53.178;5.846;2024-03-29T05:27:14;7.50;99.90
54680;DHT22;40578;53.178;5.846;2024-03-29T05:29:40;7.50;99.90
54680;DHT22;40578;53.178;5.846;2024-03-29T05:32:07;7.50;99.90
54680;DHT22;40578;53.178;5.846;2024-03-29T05:34:32;7.50;99.90
54680;DHT22;40578;53.178;5.846;2024-03-29T05:36:58;7.50;99.90
54680;DHT22;40578;53.178;5.846;2024-03-29T05:39:23;7.60;99.90
54680;DHT22;40578;53.178;5.846;2024-03-29T05:41:49;7.60;99.90
54680;DHT22;40578;53.178;5.846;2024-03-29T05:44:15;7.60;99.90
54680;DHT22;40578;53.178;5.846;2024-03-29T05:46:40;7.60;99.90
54680;DHT22;40578;53.178;5.846;2024-03-29T05:49:06;7.60;99.90
54680;DHT22;40578;53.178;5.846;2024-03-29T05:51:33;7.60;99.90
54680;DHT22;40578;53.178;5.846;2024-03-29T05:54:02;7.70;99.90
54680;DHT22;40578;53.178;5.846;2024-03-29T05:56:30;7.70;99.90
54680;DHT22;40578;53.178;5.846;2024-03-29T05:58:56;7.70;99.90
54680;DHT22;40578;53.178;5.846;2024-03-29T06:01:22;7.80;99.90
54680;DHT22;40578;53.178;5.846;2024-03-29T06:03:50;7.80;99.90
54680;DHT22;40578;53.178;5.846;2024-03-29T06:06:18;8.00;99.90
54680;DHT22;40578;53.178;5.846;2024-03-29T06:08:47;7.90;99.90
54680;DHT22;40578;53.178;5.846;2024-03-29T06:11:13;7.80;99.90
54680;DHT22;40578;53.178;5.846;2024-03-29T06:13:38;8.00;99.90
54680;DHT22;40578;53.178;5.846;2024-03-29T06:16:25;7.90;99.90
54680;DHT22;40578;53.178;5.846;2024-03-29T06:19:10;8.30;99.90
54680;DHT22;40578;53.178;5.846;2024-03-29T06:21:36;8.00;99.90
54680;DHT22;40578;53.178;5.846;2024-03-29T06:24:11;8.00;99.90
54680;DHT22;40578;53.178;5.846;2024-03-29T06:26:41;8.10;99.90
54680;DHT22;40578;53.178;5.846;2024-03-29T06:29:07;8.10;99.90
54680;DHT22;40578;53.178;5.846;2024-03-29T06:31:35;8.10;99.90
54680;DHT22;40578;53.178;5.846;2024-03-29T06:34:01;8.20;99.90
54680;DHT22;40578;53.178;5.846;2024-03-29T06:36:26;8.30;99.90
54680;DHT22;40578;53.178;5.846;2024-03-29T06:38:54;8.40;99.90
54680;DHT22;40578;53.178;5.846;2024-03-29T06:41:20;8.30;99.90
54680;DHT22;40578;53.178;5.846;2024-03-29T06:43:45;8.30;99.90
54680;DHT22;40578;53.178;5.846;2024-03-29T06:46:12;8.30;99.90
54680;DHT22;40578;53.178;5.846;2024-03-29T06:48:37;8.70;99.90
54680;DHT22;40578;53.178;5.846;2024-03-29T06:51:04;8.30;99.90
54680;DHT22;40578;53.178;5.846;2024-03-29T06:53:30;8.30;99.90
54680;DHT22;40578;53.178;5.846;2024-03-29T06:55:55;8.50;99.90
54680;DHT22;40578;53.178;5.846;2024-03-29T06:58:25;8.40;99.90
54680;DHT22;40578;53.178;5.846;2024-03-29T07:00:50;8.40;99.90
54680;DHT22;40578;53.178;5.846;2024-03-29T07:03:17;8.40;99.90
54680;DHT22;40578;53.178;5.846;2024-03-29T07:05:45;8.40;99.90
54680;DHT22;40578;53.178;5.846;2024-03-29T07:08:11;8.40;99.90
54680;DHT22;40578;53.178;5.846;2024-03-29T07:10:36;8.50;99.90
54680;DHT22;40578;53.178;5.846;2024-03-29T07:13:02;8.50;99.90
54680;DHT22;40578;53.178;5.846;2024-03-29T07:15:28;8.50;99.90
54680;DHT22;40578;53.178;5.846;2024-03-29T07:17:53;8.50;99.90
54680;DHT22;40578;53.178;5.846;2024-03-29T07:20:19;8.60;99.90
54680;DHT22;40578;53.178;5.846;2024-03-29T07:22:44;8.60;99.90
54680;DHT22;40578;53.178;5.846;2024-03-29T07:25:11;8.60;99.90
54680;DHT22;40578;53.178;5.846;2024-03-29T07:27:37;8.70;99.90
54680;DHT22;40578;53.178;5.846;2024-03-29T07:30:03;8.60;99.90
54680;DHT22;40578;53.178;5.846;2024-03-29T07:32:30;8.60;99.90
54680;DHT22;40578;53.178;5.846;2024-03-29T07:34:56;8.60;99.90
54680;DHT22;40578;53.178;5.846;2024-03-29T07:37:24;8.60;99.90
54680;DHT22;40578;53.178;5.846;2024-03-29T07:39:50;8.70;99.90
54680;DHT22;40578;53.178;5.846;2024-03-29T07:42:16;8.60;99.90
54680;DHT22;40578;53.178;5.846;2024-03-29T07:44:41;8.70;99.90
54680;DHT22;40578;53.178;5.846;2024-03-29T07:47:07;8.60;99.90
54680;DHT22;40578;53.178;5.846;2024-03-29T07:49:33;8.60;99.90
54680;DHT22;40578;53.178;5.846;2024-03-29T07:51:58;9.00;99.90
54680;DHT22;40578;53.178;5.846;2024-03-29T07:54:25;8.70;99.90
54680;DHT22;40578;53.178;5.846;2024-03-29T07:56:51;8.80;99.90
54680;DHT22;40578;53.178;5.846;2024-03-29T07:59:16;9.20;99.90
54680;DHT22;40578;53.178;5.846;2024-03-29T08:01:44;8.90;99.90
54680;DHT22;40578;53.178;5.846;2024-03-29T08:04:10;9.00;99.90
54680;DHT22;40578;53.178;5.846;2024-03-29T08:06:36;9.00;99.90
54680;DHT22;40578;53.178;5.846;2024-03-29T08:09:04;9.10;99.90
54680;DHT22;40578;53.178;5.846;2024-03-29T08:11:30;9.20;99.90
54680;DHT22;40578;53.178;5.846;2024-03-29T08:13:56;9.20;99.90
54680;DHT22;40578;53.178;5.846;2024-03-29T08:16:21;9.10;99.90
54680;DHT22;40578;53.178;5.846;2024-03-29T08:18:47;9.10;99.90
54680;DHT22;40578;53.178;5.846;2024-03-29T08:21:13;9.10;99.90
54680;DHT22;40578;53.178;5.846;2024-03-29T08:23:42;9.20;99.90
54680;DHT22;40578;53.178;5.846;2024-03-29T08:26:11;9.20;99.90
54680;DHT22;40578;53.178;5.846;2024-03-29T08:28:37;9.30;99.90
54680;DHT22;40578;53.178;5.846;2024-03-29T08:31:07;9.30;99.90
54680;DHT22;40578;53.178;5.846;2024-03-29T08:33:35;9.40;99.90
54680;DHT22;40578;53.178;5.846;2024-03-29T08:36:06;9.30;99.90
54680;DHT22;40578;53.178;5.846;2024-03-29T08:38:33;9.30;99.90
54680;DHT22;40578;53.178;5.846;2024-03-29T08:40:59;9.30;99.90
54680;DHT22;40578;53.178;5.846;2024-03-29T08:43:25;9.30;99.90
54680;DHT22;40578;53.178;5.846;2024-03-29T08:45:52;9.30;99.90
54680;DHT22;40578;53.178;5.846;2024-03-29T08:48:18;9.30;99.90
54680;DHT22;40578;53.178;5.846;2024-03-29T08:50:44;9.30;99.90
54680;DHT22;40578;53.178;5.846;2024-03-29T08:53:10;9.30;99.90
54680;DHT22;40578;53.178;5.846;2024-03-29T08:55:35;9.30;99.90
54680;DHT22;40578;53.178;5.846;2024-03-29T08:58:06;9.30;99.90
54680;DHT22;40578;53.178;5.846;2024-03-29T09:00:32;9.40;99.90
54680;DHT22;40578;53.178;5.846;2024-03-29T09:02:57;9.40;99.90
54680;DHT22;40578;53.178;5.846;2024-03-29T09:05:23;9.70;99.90
54680;DHT22;40578;53.178;5.846;2024-03-29T09:07:50;9.80;99.90
54680;DHT22;40578;53.178;5.846;2024-03-29T09:10:16;9.90;99.90
54680;DHT22;40578;53.178;5.846;2024-03-29T09:12:42;9.70;99.90
54680;DHT22;40578;53.178;5.846;2024-03-29T09:15:08;9.70;99.90
54680;DHT22;40578;53.178;5.846;2024-03-29T09:17:41;9.80;99.90
54680;DHT22;40578;53.178;5.846;2024-03-29T09:20:07;9.70;99.90
54680;DHT22;40578;53.178;5.846;2024-03-29T09:22:34;9.70;99.90
54680;DHT22;40578;53.178;5.846;2024-03-29T09:24:59;9.80;99.90
54680;DHT22;40578;53.178;5.846;2024-03-29T09:27:26;9.80;99.90
54680;DHT22;40578;53.178;5.846;2024-03-29T09:29:52;10.00;99.90
54680;DHT22;40578;53.178;5.846;2024-03-29T09:32:19;10.00;99.90
54680;DHT22;40578;53.178;5.846;2024-03-29T09:34:45;10.00;99.90
54680;DHT22;40578;53.178;5.846;2024-03-29T09:37:11;10.00;99.90
54680;DHT22;40578;53.178;5.846;2024-03-29T09:39:37;10.10;99.90
54680;DHT22;40578;53.178;5.846;2024-03-29T09:42:03;10.40;99.90
54680;DHT22;40578;53.178;5.846;2024-03-29T09:44:33;10.20;99.90
54680;DHT22;40578;53.178;5.846;2024-03-29T09:47:05;10.20;99.90
54680;DHT22;40578;53.178;5.846;2024-03-29T09:49:32;10.40;99.90
54680;DHT22;40578;53.178;5.846;2024-03-29T09:51:59;10.40;99.90
54680;DHT22;40578;53.178;5.846;2024-03-29T09:54:29;10.50;99.90
54680;DHT22;40578;53.178;5.846;2024-03-29T09:56:56;10.60;99.90
54680;DHT22;40578;53.178;5.846;2024-03-29T09:59:23;10.70;99.90
54680;DHT22;40578;53.178;5.846;2024-03-29T10:01:50;10.80;99.90
54680;DHT22;40578;53.178;5.846;2024-03-29T10:04:17;10.80;99.90
54680;DHT22;40578;53.178;5.846;2024-03-29T10:06:46;10.80;99.90
54680;DHT22;40578;53.178;5.846;2024-03-29T10:09:16;10.80;99.90
54680;DHT22;40578;53.178;5.846;2024-03-29T10:11:42;11.00;99.90
54680;DHT22;40578;53.178;5.846;2024-03-29T10:14:09;11.00;99.90
54680;DHT22;40578;53.178;5.846;2024-03-29T10:16:35;11.00;99.90
54680;DHT22;40578;53.178;5.846;2024-03-29T10:19:00;11.10;99.90
54680;DHT22;40578;53.178;5.846;2024-03-29T10:21:26;10.90;99.90
54680;DHT22;40578;53.178;5.846;2024-03-29T10:23:53;11.10;99.90
54680;DHT22;40578;53.178;5.846;2024-03-29T10:26:19;11.30;99.90
54680;DHT22;40578;53.178;5.846;2024-03-29T10:28:46;11.50;99.90
54680;DHT22;40578;53.178;5.846;2024-03-29T10:31:12;11.50;99.90
54680;DHT22;40578;53.178;5.846;2024-03-29T10:33:42;11.70;99.90
54680;DHT22;40578;53.178;5.846;2024-03-29T10:36:09;11.30;99.90
54680;DHT22;40578;53.178;5.846;2024-03-29T10:38:37;11.30;99.90
54680;DHT22;40578;53.178;5.846;2024-03-29T10:41:04;11.20;99.90
54680;DHT22;40578;53.178;5.846;2024-03-29T10:43:33;11.20;99.90
54680;DHT22;40578;53.178;5.846;2024-03-29T10:46:00;11.20;99.90
54680;DHT22;40578;53.178;5.846;2024-03-29T10:48:27;11.30;99.90
54680;DHT22;40578;53.178;5.846;2024-03-29T10:50:57;11.10;99.90
54680;DHT22;40578;53.178;5.846;2024-03-29T10:53:24;11.10;99.90
54680;DHT22;40578;53.178;5.846;2024-03-29T10:56:02;11.10;99.90
54680;DHT22;40578;53.178;5.846;2024-03-29T10:58:35;11.20;99.90
54680;DHT22;40578;53.178;5.846;2024-03-29T11:01:01;11.20;99.90
54680;DHT22;40578;53.178;5.846;2024-03-29T11:03:32;11.10;99.90
54680;DHT22;40578;53.178;5.846;2024-03-29T11:06:03;11.30;99.90
54680;DHT22;40578;53.178;5.846;2024-03-29T11:08:34;11.30;99.90
54680;DHT22;40578;53.178;5.846;2024-03-29T11:11:05;11.60;99.90
54680;DHT22;40578;53.178;5.846;2024-03-29T11:16:16;11.60;99.90
54680;DHT22;40578;53.178;5.846;2024-03-29T11:18:43;11.90;99.90
54680;DHT22;40578;53.178;5.846;2024-03-29T11:21:09;11.70;99.90
54680;DHT22;40578;53.178;5.846;2024-03-29T11:23:36;11.80;99.90
54680;DHT22;40578;53.178;5.846;2024-03-29T11:26:02;11.90;99.90
54680;DHT22;40578;53.178;5.846;2024-03-29T11:28:34;11.90;99.90
54680;DHT22;40578;53.178;5.846;2024-03-29T11:31:05;11.90;99.90
54680;DHT22;40578;53.178;5.846;2024-03-29T11:33:43;11.90;99.90
54680;DHT22;40578;53.178;5.846;2024-03-29T11:36:20;11.80;99.90
54680;DHT22;40578;53.178;5.846;2024-03-29T11:38:47;11.70;99.90
54680;DHT22;40578;53.178;5.846;2024-03-29T11:41:18;11.80;99.90
54680;DHT22;40578;53.178;5.846;2024-03-29T11:43:45;11.80;99.90
54680;DHT22;40578;53.178;5.846;2024-03-29T11:46:13;11.80;99.90
54680;DHT22;40578;53.178;5.846;2024-03-29T11:48:39;11.70;99.90
54680;DHT22;40578;53.178;5.846;2024-03-29T11:51:07;11.70;99.90
54680;DHT22;40578;53.178;5.846;2024-03-29T11:53:34;11.90;99.90
54680;DHT22;40578;53.178;5.846;2024-03-29T11:56:01;11.90;99.90
54680;DHT22;40578;53.178;5.846;2024-03-29T11:58:28;12.00;99.90
54680;DHT22;40578;53.178;5.846;2024-03-29T12:00:56;12.10;99.90
54680;DHT22;40578;53.178;5.846;2024-03-29T12:03:25;12.10;99.90
54680;DHT22;40578;53.178;5.846;2024-03-29T12:05:52;12.30;99.90
54680;DHT22;40578;53.178;5.846;2024-03-29T12:08:28;12.20;99.90
54680;DHT22;40578;53.178;5.846;2024-03-29T12:10:54;12.30;99.90
54680;DHT22;40578;53.178;5.846;2024-03-29T12:13:20;12.40;99.90
54680;DHT22;40578;53.178;5.846;2024-03-29T12:15:45;12.40;99.90
54680;DHT22;40578;53.178;5.846;2024-03-29T12:18:11;12.20;99.90
54680;DHT22;40578;53.178;5.846;2024-03-29T12:20:40;12.20;99.90
54680;DHT22;40578;53.178;5.846;2024-03-29T12:23:08;12.30;99.90
54680;DHT22;40578;53.178;5.846;2024-03-29T12:25:36;12.40;99.90
54680;DHT22;40578;53.178;5.846;2024-03-29T12:28:02;12.50;99.90
54680;DHT22;40578;53.178;5.846;2024-03-29T12:30:29;12.50;99.90
54680;DHT22;40578;53.178;5.846;2024-03-29T12:35:32;12.40;99.90
54680;DHT22;40578;53.178;5.846;2024-03-29T12:37:59;12.50;99.90
54680;DHT22;40578;53.178;5.846;2024-03-29T12:40:26;12.40;99.90
54680;DHT22;40578;53.178;5.846;2024-03-29T12:42:53;12.40;99.90
54680;DHT22;40578;53.178;5.846;2024-03-29T12:45:19;12.30;99.90
54680;DHT22;40578;53.178;5.846;2024-03-29T12:47:46;12.10;99.90
54680;DHT22;40578;53.178;5.846;2024-03-29T12:50:26;12.30;99.90
54680;DHT22;40578;53.178;5.846;2024-03-29T12:53:00;12.10;99.90
54680;DHT22;40578;53.178;5.846;2024-03-29T12:55:28;12.10;99.90
54680;DHT22;40578;53.178;5.846;2024-03-29T12:57:56;12.20;99.90
54680;DHT22;40578;53.178;5.846;2024-03-29T13:00:22;12.30;99.90
54680;DHT22;40578;53.178;5.846;2024-03-29T13:02:48;12.40;99.90
54680;DHT22;40578;53.178;5.846;2024-03-29T13:05:14;12.40;99.90
54680;DHT22;40578;53.178;5.846;2024-03-29T13:07:40;12.30;99.90
54680;DHT22;40578;53.178;5.846;2024-03-29T13:10:06;12.40;99.90
54680;DHT22;40578;53.178;5.846;2024-03-29T13:12:41;12.40;99.90
54680;DHT22;40578;53.178;5.846;2024-03-29T13:15:32;12.60;99.90
54680;DHT22;40578;53.178;5.846;2024-03-29T13:17:58;12.80;99.90
54680;DHT22;40578;53.178;5.846;2024-03-29T13:20:25;13.10;99.90
54680;DHT22;40578;53.178;5.846;2024-03-29T13:22:51;13.10;99.90
54680;DHT22;40578;53.178;5.846;2024-03-29T13:25:17;13.20;99.90
54680;DHT22;40578;53.178;5.846;2024-03-29T13:27:45;13.80;99.90
54680;DHT22;40578;53.178;5.846;2024-03-29T13:30:12;13.50;99.90
54680;DHT22;40578;53.178;5.846;2024-03-29T13:32:42;13.50;99.90
54680;DHT22;40578;53.178;5.846;2024-03-29T13:35:09;13.30;99.90
54680;DHT22;40578;53.178;5.846;2024-03-29T13:37:39;13.60;99.90
54680;DHT22;40578;53.178;5.846;2024-03-29T13:40:08;13.60;99.90
54680;DHT22;40578;53.178;5.846;2024-03-29T13:42:35;13.50;99.90
54680;DHT22;40578;53.178;5.846;2024-03-29T13:45:01;13.40;99.90
54680;DHT22;40578;53.178;5.846;2024-03-29T13:47:27;13.30;99.90
54680;DHT22;40578;53.178;5.846;2024-03-29T13:49:52;13.10;99.90
54680;DHT22;40578;53.178;5.846;2024-03-29T13:52:20;13.10;99.90
54680;DHT22;40578;53.178;5.846;2024-03-29T13:54:46;13.10;99.90
54680;DHT22;40578;53.178;5.846;2024-03-29T13:57:13;13.00;99.90
54680;DHT22;40578;53.178;5.846;2024-03-29T13:59:39;13.20;99.90
54680;DHT22;40578;53.178;5.846;2024-03-29T14:02:05;13.20;99.90
54680;DHT22;40578;53.178;5.846;2024-03-29T14:04:30;13.10;99.90
54680;DHT22;40578;53.178;5.846;2024-03-29T14:06:56;13.10;99.90
54680;DHT22;40578;53.178;5.846;2024-03-29T14:09:22;13.10;99.90
54680;DHT22;40578;53.178;5.846;2024-03-29T14:11:48;13.20;99.90
54680;DHT22;40578;53.178;5.846;2024-03-29T14:14:13;13.40;99.90
54680;DHT22;40578;53.178;5.846;2024-03-29T14:16:39;13.60;99.90
54680;DHT22;40578;53.178;5.846;2024-03-29T14:19:05;13.60;99.90
54680;DHT22;40578;53.178;5.846;2024-03-29T14:21:30;13.80;99.90
54680;DHT22;40578;53.178;5.846;2024-03-29T14:23:57;13.80;99.90
54680;DHT22;40578;53.178;5.846;2024-03-29T14:26:23;13.60;99.90
54680;DHT22;40578;53.178;5.846;2024-03-29T14:28:48;13.90;99.90
54680;DHT22;40578;53.178;5.846;2024-03-29T14:31:14;13.70;99.90
54680;DHT22;40578;53.178;5.846;2024-03-29T14:33:40;13.60;99.90
54680;DHT22;40578;53.178;5.846;2024-03-29T14:36:06;13.70;99.90
54680;DHT22;40578;53.178;5.846;2024-03-29T14:38:32;13.40;99.90
54680;DHT22;40578;53.178;5.846;2024-03-29T14:40:57;13.40;99.90
54680;DHT22;40578;53.178;5.846;2024-03-29T14:43:23;13.40;99.90
54680;DHT22;40578;53.178;5.846;2024-03-29T14:45:49;13.70;99.90
54680;DHT22;40578;53.178;5.846;2024-03-29T14:48:18;13.80;99.90
54680;DHT22;40578;53.178;5.846;2024-03-29T14:50:44;13.70;99.90
54680;DHT22;40578;53.178;5.846;2024-03-29T14:53:09;13.70;99.90
54680;DHT22;40578;53.178;5.846;2024-03-29T14:55:35;13.50;99.90
54680;DHT22;40578;53.178;5.846;2024-03-29T14:58:05;13.40;99.90
54680;DHT22;40578;53.178;5.846;2024-03-29T15:00:32;13.50;99.90
54680;DHT22;40578;53.178;5.846;2024-03-29T15:02:57;13.40;99.90
54680;DHT22;40578;53.178;5.846;2024-03-29T15:05:23;13.20;99.90
54680;DHT22;40578;53.178;5.846;2024-03-29T15:07:51;13.20;99.90
54680;DHT22;40578;53.178;5.846;2024-03-29T15:10:17;13.20;99.90
54680;DHT22;40578;53.178;5.846;2024-03-29T15:12:45;13.20;99.90
54680;DHT22;40578;53.178;5.846;2024-03-29T15:15:12;13.10;99.90
54680;DHT22;40578;53.178;5.846;2024-03-29T15:17:38;13.20;99.90
54680;DHT22;40578;53.178;5.846;2024-03-29T15:20:05;13.20;99.90
54680;DHT22;40578;53.178;5.846;2024-03-29T15:22:32;13.10;99.90
54680;DHT22;40578;53.178;5.846;2024-03-29T15:24:59;13.00;99.90
54680;DHT22;40578;53.178;5.846;2024-03-29T15:27:25;13.10;99.90
54680;DHT22;40578;53.178;5.846;2024-03-29T15:30:10;12.90;99.90
54680;DHT22;40578;53.178;5.846;2024-03-29T15:32:36;12.90;99.90
54680;DHT22;40578;53.178;5.846;2024-03-29T15:35:01;13.20;99.90
54680;DHT22;40578;53.178;5.846;2024-03-29T15:37:28;13.40;99.90
54680;DHT22;40578;53.178;5.846;2024-03-29T15:39:53;13.50;99.90
54680;DHT22;40578;53.178;5.846;2024-03-29T15:42:19;13.90;99.90